Huntington Beach, California
Current Conditions -  °F | °C
As of 3:53 PM on Thursday 18 Dec 2014 (Local Time) from KSNA Reporting Station
Broken Clouds Broken Clouds  
Wind Chill: 64°   Ceiling: 6000
Heat Index: 64°   Visibility: 10mi
Dew Point: 48°   Wind: 6mph
Humidity: 56%   Direction: 260°W
Pressure: 30.15"   Gusts: NA
Location:  33.68°N, 118°W
Report Text: KSNA 182353Z 26005KT 10SM FEW025 BKN060 18/09 A3015 RMK AO2 SLP210 T01780089 10183 20167 53001
Loading
Personal Weather Stations






























Interactive Weather Map New forecast layout! Learn more

10-Day Weather Forecast

Advertisements
Track Severe Weather on mobile